createdAt,value
2022-08-25T00:02:36.659Z,7.50
2022-08-25T00:07:41.813Z,7.83
2022-08-25T00:12:45.213Z,8.07
2022-08-25T00:17:49.195Z,8.80
2022-08-25T00:22:54.034Z,9.10
2022-08-25T00:27:59.174Z,9.13
2022-08-25T00:33:02.778Z,9.20
2022-08-25T00:38:07.596Z,8.80
2022-08-25T00:43:11.381Z,8.38
2022-08-25T00:48:14.729Z,8.20
2022-08-25T00:53:19.608Z,8.70
2022-08-25T00:58:26.148Z,9.00
2022-08-25T01:03:35.934Z,10.00
2022-08-25T01:08:40.870Z,9.38
2022-08-25T01:13:50.681Z,9.00
2022-08-25T01:18:56.493Z,9.33
2022-08-25T01:24:01.845Z,9.02
2022-08-25T01:29:25.597Z,9.27
2022-08-25T01:34:31.646Z,8.85
2022-08-25T01:39:37.430Z,9.45
2022-08-25T01:44:43.771Z,8.75
2022-08-25T01:49:47.309Z,8.77
2022-08-25T01:54:52.273Z,9.38
2022-08-25T01:59:55.618Z,9.03
2022-08-25T02:04:58.951Z,9.30
2022-08-25T02:15:10.502Z,9.57
2022-08-25T02:20:13.966Z,9.30
2022-08-25T02:25:18.854Z,9.77
2022-08-25T02:30:22.606Z,9.60
2022-08-25T02:35:26.199Z,9.50
2022-08-25T02:40:30.981Z,9.85
2022-08-25T02:45:34.365Z,10.40
2022-08-25T02:50:37.633Z,9.50
2022-08-25T02:55:42.317Z,9.95
2022-08-25T03:00:46.101Z,9.55
2022-08-25T03:05:50.145Z,10.03
2022-08-25T03:10:54.829Z,10.15
2022-08-25T03:15:58.133Z,9.70
2022-08-25T03:21:01.535Z,10.15
2022-08-25T03:26:24.205Z,9.85
2022-08-25T03:31:28.417Z,10.77
2022-08-25T03:36:32.096Z,11.07
2022-08-25T03:41:37.161Z,10.95
2022-08-25T03:46:43.806Z,11.18
2022-08-25T03:51:49.710Z,11.63
2022-08-25T03:56:54.941Z,10.87
2022-08-25T04:01:58.327Z,11.55
2022-08-25T04:07:01.658Z,10.82
2022-08-25T04:12:06.997Z,12.35
2022-08-25T04:17:10.328Z,12.25
2022-08-25T04:22:13.658Z,12.05
2022-08-25T04:27:18.365Z,12.53
2022-08-25T04:32:21.805Z,11.70
2022-08-25T04:37:25.159Z,11.65
2022-08-25T04:42:29.962Z,11.70
2022-08-25T04:47:37.408Z,11.25
2022-08-25T04:52:40.725Z,11.68
2022-08-25T04:57:45.396Z,11.05
2022-08-25T05:02:48.794Z,11.68
2022-08-25T05:07:52.099Z,11.45
2022-08-25T05:12:58.148Z,11.15
2022-08-25T05:18:01.517Z,10.57
2022-08-25T05:23:05.361Z,10.10
2022-08-25T05:28:14.859Z,8.52
2022-08-25T05:33:18.585Z,7.80
2022-08-25T05:38:22.270Z,7.77
2022-08-25T05:43:27.144Z,7.70
2022-08-25T05:48:30.452Z,7.00
2022-08-25T05:53:35.146Z,7.50
2022-08-25T05:58:40.095Z,7.90
2022-08-25T06:03:43.521Z,7.05
2022-08-25T06:08:46.879Z,6.97
2022-08-25T06:13:51.620Z,7.65
2022-08-25T06:18:55.511Z,6.82
2022-08-25T06:23:59.153Z,7.07
2022-08-25T06:29:05.084Z,6.65
2022-08-25T06:34:08.438Z,6.97
2022-08-25T06:39:12.383Z,7.10
2022-08-25T06:44:17.310Z,7.07
2022-08-25T06:49:21.664Z,6.67
2022-08-25T06:54:24.984Z,6.32
2022-08-25T06:59:32.473Z,6.78
2022-08-25T07:04:36.972Z,6.65
2022-08-25T07:09:40.457Z,6.45
2022-08-25T07:14:58.056Z,6.18
2022-08-25T07:20:08.057Z,5.70
2022-08-25T07:25:13.825Z,6.10
2022-08-25T07:30:20.421Z,6.10
2022-08-25T07:35:26.285Z,5.37
2022-08-25T07:40:32.095Z,5.67
2022-08-25T07:45:46.872Z,5.87
2022-08-25T07:50:53.423Z,5.32
2022-08-25T07:55:56.772Z,5.50
2022-08-25T08:01:02.683Z,5.60
2022-08-25T08:06:10.323Z,5.85
2022-08-25T08:11:17.306Z,5.70
2022-08-25T08:16:24.178Z,5.40
2022-08-25T08:21:30.313Z,5.43
2022-08-25T08:26:55.219Z,5.93
2022-08-25T08:31:58.412Z,6.30
2022-08-25T08:37:03.286Z,6.40
2022-08-25T08:42:22.235Z,6.30
2022-08-25T08:47:33.968Z,6.20
2022-08-25T08:52:46.122Z,6.50
2022-08-25T08:57:55.760Z,7.25
2022-08-25T09:03:06.473Z,7.63
2022-08-25T09:08:12.954Z,7.18
2022-08-25T09:13:26.392Z,6.63
2022-08-25T09:18:41.191Z,6.57
2022-08-25T09:24:14.097Z,7.30
2022-08-25T09:29:23.670Z,7.40
2022-08-25T09:34:35.130Z,7.75
2022-08-25T09:39:39.133Z,6.70
2022-08-25T09:44:44.525Z,6.60
2022-08-25T09:49:51.287Z,6.70
2022-08-25T09:54:56.043Z,6.20
2022-08-25T10:00:10.515Z,6.63
2022-08-25T10:05:24.458Z,6.32
2022-08-25T10:10:32.232Z,6.30
2022-08-25T10:15:38.846Z,6.53
2022-08-25T10:20:44.584Z,6.28
2022-08-25T10:25:57.616Z,6.05
2022-08-25T10:31:10.886Z,6.75
2022-08-25T10:36:21.425Z,5.67
2022-08-25T10:41:46.899Z,5.80
2022-08-25T10:46:58.330Z,6.00
2022-08-25T10:52:08.822Z,6.25
2022-08-25T10:57:21.398Z,5.80
2022-08-25T11:03:04.301Z,6.68
2022-08-25T11:08:15.573Z,6.10
2022-08-25T11:13:26.292Z,6.07
2022-08-25T11:18:31.967Z,6.30
2022-08-25T11:23:40.881Z,6.63
2022-08-25T11:28:55.403Z,6.45
2022-08-25T11:34:00.826Z,6.20
2022-08-25T11:39:17.314Z,6.15
2022-08-25T11:44:39.226Z,6.47
2022-08-25T11:50:00.601Z,7.10
2022-08-25T11:55:12.068Z,6.25
2022-08-25T12:00:36.663Z,6.50
2022-08-25T12:06:13.853Z,6.32
2022-08-25T12:11:49.362Z,6.20
2022-08-25T12:17:12.166Z,6.65
2022-08-25T12:22:51.674Z,7.30
2022-08-25T12:28:09.214Z,7.20
2022-08-25T12:33:21.192Z,6.70
2022-08-25T12:38:33.036Z,6.72
2022-08-25T12:43:43.381Z,7.00
2022-08-25T12:48:58.092Z,6.82
2022-08-25T12:54:18.930Z,6.80
2022-08-25T12:59:32.692Z,6.93
2022-08-25T13:05:11.709Z,6.47
2022-08-25T13:10:35.138Z,7.05
2022-08-25T13:15:45.221Z,6.68
2022-08-25T13:20:54.002Z,6.97
2022-08-25T13:25:58.641Z,7.10
2022-08-25T13:31:09.013Z,6.63
2022-08-25T13:36:36.202Z,6.22
2022-08-25T13:41:46.277Z,6.50
2022-08-25T13:47:07.248Z,6.60
2022-08-25T13:52:21.505Z,5.90
2022-08-25T13:57:33.859Z,6.25
2022-08-25T14:02:45.195Z,5.90
2022-08-25T14:08:03.791Z,6.20
2022-08-25T14:13:33.280Z,6.30
2022-08-25T14:18:39.988Z,6.30
2022-08-25T14:23:43.799Z,6.35
2022-08-25T14:28:47.271Z,6.50
2022-08-25T14:33:55.518Z,7.00
2022-08-25T14:38:59.406Z,9.20
2022-08-25T14:44:05.573Z,9.32
2022-08-25T14:49:13.865Z,7.07
2022-08-25T14:54:18.802Z,7.07
2022-08-25T14:59:22.501Z,6.97
2022-08-25T15:04:30.082Z,6.63
2022-08-25T15:09:33.863Z,7.30
2022-08-25T15:14:37.226Z,9.05
2022-08-25T15:19:45.945Z,10.33
2022-08-25T15:24:49.360Z,9.93
2022-08-25T15:29:52.863Z,10.10
2022-08-25T15:34:59.479Z,10.15
2022-08-25T15:40:03.721Z,9.68
2022-08-25T15:45:12.084Z,9.37
2022-08-25T15:50:24.158Z,9.45
2022-08-25T15:55:29.462Z,8.10
2022-08-25T16:00:32.941Z,8.55
2022-08-25T16:05:38.263Z,8.97
2022-08-25T16:10:44.393Z,9.05
2022-08-25T16:15:54.256Z,9.90
2022-08-25T16:20:59.298Z,9.10
2022-08-25T16:26:06.714Z,9.02
2022-08-25T16:31:12.337Z,8.75
2022-08-25T16:36:19.277Z,9.30
2022-08-25T16:41:27.233Z,9.63
2022-08-25T16:46:31.265Z,9.90
2022-08-25T16:51:38.666Z,10.10
2022-08-25T16:56:42.742Z,9.57
2022-08-25T17:01:46.655Z,9.40
2022-08-25T17:06:51.670Z,9.52
2022-08-25T17:11:57.308Z,9.60
2022-08-25T17:17:00.707Z,9.40
2022-08-25T17:22:08.215Z,9.40
2022-08-25T17:27:13.199Z,9.98
2022-08-25T17:32:16.967Z,10.20
2022-08-25T17:37:22.238Z,10.98
2022-08-25T17:42:25.642Z,10.55
2022-08-25T17:47:33.793Z,10.00
2022-08-25T17:52:39.460Z,10.57
2022-08-25T17:57:42.925Z,10.15
2022-08-25T18:02:47.071Z,10.93
2022-08-25T18:07:51.926Z,11.77
2022-08-25T18:12:57.358Z,10.53
2022-08-25T18:18:00.792Z,11.57
2022-08-25T18:23:09.912Z,12.48
2022-08-25T18:28:13.662Z,12.15
2022-08-25T18:33:19.054Z,13.83
2022-08-25T18:38:42.879Z,12.43
2022-08-25T18:43:46.756Z,13.43
2022-08-25T18:48:53.017Z,11.98
2022-08-25T18:54:00.961Z,11.65
2022-08-25T18:59:04.896Z,12.63
2022-08-25T19:04:10.058Z,13.23
2022-08-25T19:09:15.871Z,13.13
2022-08-25T19:14:19.387Z,13.45
2022-08-25T19:19:22.783Z,13.52
2022-08-25T19:24:28.334Z,13.30
2022-08-25T19:29:32.594Z,12.93
2022-08-25T19:34:42.055Z,13.50
2022-08-25T19:39:53.133Z,14.70
2022-08-25T19:44:59.638Z,13.05
2022-08-25T19:50:03.181Z,12.90
2022-08-25T19:55:09.011Z,12.60
2022-08-25T20:00:17.592Z,13.03
2022-08-25T20:05:23.553Z,12.57
2022-08-25T20:10:31.739Z,12.80
2022-08-25T20:15:38.735Z,12.83
2022-08-25T20:20:42.869Z,13.35
2022-08-25T20:25:47.941Z,12.23
2022-08-25T20:30:54.058Z,12.57
2022-08-25T20:35:58.234Z,13.07
2022-08-25T20:41:03.152Z,13.77
2022-08-25T20:46:07.928Z,12.05
2022-08-25T20:51:13.070Z,12.40
2022-08-25T20:56:20.365Z,12.70
2022-08-25T21:01:37.531Z,14.27
2022-08-25T21:06:41.656Z,14.00
2022-08-25T21:11:47.193Z,15.05
2022-08-25T21:16:51.085Z,13.73
2022-08-25T21:21:59.828Z,15.02
2022-08-25T21:27:06.222Z,15.63
2022-08-25T21:32:09.976Z,14.85
2022-08-25T21:37:13.432Z,14.73
2022-08-25T21:42:18.502Z,15.10
2022-08-25T21:47:23.261Z,15.07
2022-08-25T21:52:26.899Z,14.30
2022-08-25T21:57:31.768Z,14.35
2022-08-25T22:02:35.246Z,13.73
2022-08-25T22:07:41.719Z,13.35
2022-08-25T22:12:47.446Z,14.37
2022-08-25T22:17:50.840Z,15.80
2022-08-25T22:22:54.438Z,15.13
2022-08-25T22:27:59.305Z,18.60
2022-08-25T22:33:03.364Z,18.92
2022-08-25T22:38:12.447Z,15.02
2022-08-25T22:43:17.558Z,15.40
2022-08-25T22:48:20.891Z,14.00
2022-08-25T22:53:24.481Z,13.80
2022-08-25T22:58:29.829Z,12.98
2022-08-25T23:03:33.215Z,16.10
2022-08-25T23:08:39.142Z,14.70
2022-08-25T23:13:46.583Z,16.33
2022-08-25T23:18:49.978Z,15.13
2022-08-25T23:23:53.443Z,14.00
2022-08-25T23:28:58.635Z,14.45
2022-08-25T23:34:02.811Z,14.73
2022-08-25T23:39:07.785Z,14.00
2022-08-25T23:44:17.480Z,14.93
2022-08-25T23:49:23.744Z,13.45
2022-08-25T23:54:31.018Z,13.57
2022-08-25T23:59:36.430Z,13.15
